createdAt,value
2022-08-11T00:01:36.936Z,18.08
2022-08-11T00:04:04.865Z,18.06
2022-08-11T00:06:34.680Z,17.94
2022-08-11T00:09:01.747Z,17.81
2022-08-11T00:11:36.336Z,17.87
2022-08-11T00:14:04.123Z,17.74
2022-08-11T00:16:30.817Z,17.76
2022-08-11T00:18:57.794Z,17.76
2022-08-11T00:22:02.769Z,17.77
2022-08-11T00:24:12.592Z,17.78
2022-08-11T00:26:39.019Z,17.70
2022-08-11T00:29:09.862Z,17.80
2022-08-11T00:31:37.026Z,17.71
2022-08-11T00:34:04.678Z,17.49
2022-08-11T00:36:49.200Z,17.59
2022-08-11T00:39:16.847Z,17.64
2022-08-11T00:42:02.080Z,17.43
2022-08-11T00:44:47.206Z,17.36
2022-08-11T00:47:13.552Z,17.36
2022-08-11T00:49:39.854Z,17.36
2022-08-11T00:52:25.035Z,17.37
2022-08-11T00:55:16.426Z,17.34
2022-08-11T00:57:53.467Z,17.20
2022-08-11T01:00:23.184Z,17.29
2022-08-11T01:03:08.113Z,17.28
2022-08-11T01:05:38.540Z,17.24
2022-08-11T01:08:20.937Z,17.21
2022-08-11T01:10:56.318Z,17.17
2022-08-11T01:13:31.797Z,17.12
2022-08-11T01:16:16.864Z,17.08
2022-08-11T01:18:49.923Z,16.99
2022-08-11T01:21:42.117Z,17.04
2022-08-11T01:24:27.073Z,16.92
2022-08-11T01:27:19.456Z,16.78
2022-08-11T01:30:03.641Z,16.73
2022-08-11T01:32:48.791Z,16.71
2022-08-11T01:35:15.220Z,16.62
2022-08-11T01:37:47.856Z,16.62
2022-08-11T01:40:26.869Z,16.48
2022-08-11T01:43:46.500Z,16.29
2022-08-11T01:46:12.771Z,16.20
2022-08-11T01:48:41.862Z,16.10
2022-08-11T01:51:20.856Z,15.90
2022-08-11T01:53:50.121Z,15.85
2022-08-11T01:56:35.385Z,15.90
2022-08-11T01:59:23.097Z,15.86
2022-08-11T02:02:07.939Z,15.75
2022-08-11T02:04:49.465Z,15.68
2022-08-11T02:07:27.932Z,15.62
2022-08-11T02:10:36.490Z,15.59
2022-08-11T02:13:14.765Z,15.73
2022-08-11T02:15:51.029Z,15.77
2022-08-11T02:18:55.946Z,15.66
2022-08-11T02:21:46.221Z,15.71
2022-08-11T02:24:16.128Z,15.74
2022-08-11T02:26:42.427Z,15.77
2022-08-11T02:29:26.088Z,15.75
2022-08-11T02:32:28.568Z,15.76
2022-08-11T02:35:03.367Z,15.85
2022-08-11T02:37:32.690Z,15.77
2022-08-11T02:40:08.194Z,15.87
2022-08-11T02:42:37.967Z,15.79
2022-08-11T02:45:23.095Z,15.68
2022-08-11T02:48:14.688Z,15.73
2022-08-11T02:50:49.297Z,15.79
2022-08-11T02:53:21.718Z,15.74
2022-08-11T02:55:57.759Z,15.79
2022-08-11T02:58:38.572Z,15.77
2022-08-11T03:01:28.834Z,15.83
2022-08-11T03:04:03.588Z,15.83
2022-08-11T03:06:41.078Z,15.59
2022-08-11T03:09:33.734Z,15.54
2022-08-11T03:12:26.362Z,15.37
2022-08-11T03:15:15.139Z,15.47
2022-08-11T03:17:59.089Z,15.44
2022-08-11T03:20:45.133Z,15.29
2022-08-11T03:23:19.757Z,15.31
2022-08-11T03:25:46.714Z,15.37
2022-08-11T03:28:21.071Z,15.44
2022-08-11T03:31:01.961Z,15.35
2022-08-11T03:33:52.989Z,15.45
2022-08-11T03:36:28.186Z,15.39
2022-08-11T03:38:54.596Z,15.39
2022-08-11T03:42:01.433Z,15.16
2022-08-11T03:44:39.914Z,15.12
2022-08-11T03:47:18.795Z,14.99
2022-08-11T03:49:45.317Z,14.93
2022-08-11T03:52:16.503Z,14.98
2022-08-11T03:55:08.804Z,14.96
2022-08-11T03:57:53.394Z,14.75
2022-08-11T04:00:38.071Z,14.75
2022-08-11T04:03:22.545Z,14.72
2022-08-11T04:06:00.408Z,14.83
2022-08-11T04:08:46.629Z,14.82
2022-08-11T04:11:31.708Z,14.94
2022-08-11T04:14:17.978Z,15.00
2022-08-11T04:16:59.423Z,15.04
2022-08-11T04:19:41.088Z,15.05
2022-08-11T04:22:20.999Z,15.11
2022-08-11T04:24:57.865Z,15.19
2022-08-11T04:27:48.216Z,15.25
2022-08-11T04:30:18.968Z,15.15
2022-08-11T04:32:45.874Z,15.20
2022-08-11T04:35:30.646Z,15.23
2022-08-11T04:37:56.991Z,15.27
2022-08-11T04:40:42.090Z,15.32
2022-08-11T04:44:02.807Z,15.41
2022-08-11T04:46:49.278Z,15.43
2022-08-11T04:49:53.168Z,15.51
2022-08-11T04:52:53.252Z,15.56
2022-08-11T04:55:56.243Z,15.62
2022-08-11T04:58:54.035Z,15.64
2022-08-11T05:01:38.804Z,15.62
2022-08-11T05:04:42.910Z,15.75
2022-08-11T05:07:18.164Z,15.68
2022-08-11T05:09:50.641Z,15.92
2022-08-11T05:12:25.875Z,15.84
2022-08-11T05:15:11.574Z,16.01
2022-08-11T05:17:59.498Z,16.04
2022-08-11T05:20:45.399Z,16.14
2022-08-11T05:23:30.781Z,16.25
2022-08-11T05:26:46.974Z,16.36
2022-08-11T05:29:23.996Z,16.36
2022-08-11T05:32:14.498Z,16.51
2022-08-11T05:34:54.001Z,16.66
2022-08-11T05:37:29.544Z,16.65
2022-08-11T05:40:18.647Z,16.67
2022-08-11T05:43:23.615Z,16.85
2022-08-11T05:46:16.011Z,16.93
2022-08-11T05:49:01.905Z,17.04
2022-08-11T05:51:55.386Z,17.06
2022-08-11T05:54:46.003Z,17.14
2022-08-11T05:57:48.807Z,17.23
2022-08-11T06:00:10.265Z,17.32
2022-08-11T06:02:41.195Z,17.33
2022-08-11T06:05:07.844Z,17.44
2022-08-11T06:07:48.924Z,17.45
2022-08-11T06:10:26.325Z,17.45
2022-08-11T06:12:53.464Z,17.63
2022-08-11T06:15:20.261Z,17.73
2022-08-11T06:17:46.980Z,17.77
2022-08-11T06:20:14.875Z,17.78
2022-08-11T06:22:48.574Z,17.91
2022-08-11T06:25:19.482Z,17.94
2022-08-11T06:27:46.136Z,18.07
2022-08-11T06:30:15.889Z,18.09
2022-08-11T06:32:44.680Z,18.20
2022-08-11T06:35:16.860Z,18.21
2022-08-11T06:37:53.672Z,18.20
2022-08-11T06:40:31.147Z,18.35
2022-08-11T06:43:03.421Z,18.44
2022-08-11T06:45:37.477Z,18.54
2022-08-11T06:48:06.517Z,18.64
2022-08-11T06:50:51.945Z,18.70
2022-08-11T06:53:19.952Z,18.78
2022-08-11T06:56:06.628Z,18.77
2022-08-11T06:58:58.517Z,18.94
2022-08-11T07:01:35.619Z,19.08
2022-08-11T07:04:07.413Z,19.17
2022-08-11T07:07:08.778Z,19.26
2022-08-11T07:10:11.335Z,19.43
2022-08-11T07:12:58.720Z,19.53
2022-08-11T07:16:12.946Z,19.63
2022-08-11T07:18:52.048Z,19.76
2022-08-11T07:22:02.360Z,19.87
2022-08-11T07:25:01.347Z,19.96
2022-08-11T07:27:49.599Z,20.04
2022-08-11T07:30:17.233Z,20.26
2022-08-11T07:32:51.090Z,20.24
2022-08-11T07:35:20.477Z,20.46
2022-08-11T07:37:50.803Z,20.58
2022-08-11T07:40:28.949Z,20.68
2022-08-11T07:42:56.280Z,20.78
2022-08-11T07:45:42.356Z,20.85
2022-08-11T07:48:28.287Z,20.98
2022-08-11T07:51:13.585Z,21.07
2022-08-11T07:53:41.870Z,21.19
2022-08-11T07:56:48.730Z,21.27
2022-08-11T08:00:03.466Z,21.35
2022-08-11T08:02:35.406Z,21.44
2022-08-11T08:05:20.338Z,21.53
2022-08-11T08:08:06.164Z,21.63
2022-08-11T08:10:50.868Z,21.75
2022-08-11T08:13:36.033Z,21.64
2022-08-11T08:16:21.291Z,21.88
2022-08-11T08:18:47.643Z,21.95
2022-08-11T08:21:14.741Z,22.08
2022-08-11T08:23:42.715Z,22.01
2022-08-11T08:26:30.549Z,21.99
2022-08-11T08:29:20.869Z,22.24
2022-08-11T08:31:48.648Z,22.19
2022-08-11T08:34:15.657Z,22.27
2022-08-11T08:36:46.677Z,22.44
2022-08-11T08:39:14.097Z,22.37
2022-08-11T08:41:42.571Z,22.61
2022-08-11T08:44:35.118Z,22.71
2022-08-11T08:46:56.956Z,22.74
2022-08-11T08:49:27.404Z,22.87
2022-08-11T08:52:19.967Z,22.85
2022-08-11T08:54:42.975Z,22.79
2022-08-11T08:57:09.834Z,22.83
2022-08-11T08:59:48.491Z,23.07
2022-08-11T09:02:16.971Z,23.19
2022-08-11T09:04:45.158Z,23.22
2022-08-11T09:07:12.763Z,23.38
2022-08-11T09:09:43.536Z,23.41
2022-08-11T09:12:11.270Z,23.48
2022-08-11T09:14:57.329Z,23.37
2022-08-11T09:17:24.102Z,23.53
2022-08-11T09:20:00.447Z,23.59
2022-08-11T09:22:47.181Z,23.48
2022-08-11T09:25:33.353Z,23.66
2022-08-11T09:28:00.178Z,23.72
2022-08-11T09:30:27.312Z,23.77
2022-08-11T09:32:58.033Z,23.65
2022-08-11T09:35:28.488Z,23.91
2022-08-11T09:38:14.223Z,23.97
2022-08-11T09:40:45.139Z,23.97
2022-08-11T09:43:38.341Z,23.79
2022-08-11T09:46:05.586Z,23.72
2022-08-11T09:48:36.018Z,24.01
2022-08-11T09:51:03.058Z,24.04
2022-08-11T09:53:40.787Z,24.18
2022-08-11T09:56:36.563Z,24.20
2022-08-11T09:59:04.376Z,24.25
2022-08-11T10:01:31.988Z,24.32
2022-08-11T10:04:00.953Z,24.13
2022-08-11T10:06:48.054Z,24.29
2022-08-11T10:09:21.765Z,24.41
2022-08-11T10:11:55.515Z,24.50
2022-08-11T10:14:44.763Z,24.50
2022-08-11T10:17:13.362Z,24.43
2022-08-11T10:19:40.748Z,24.26
2022-08-11T10:22:27.524Z,24.55
2022-08-11T10:28:28.337Z,24.61
2022-08-11T10:31:05.505Z,24.62
2022-08-11T10:33:59.059Z,24.60
2022-08-11T10:36:49.316Z,24.65
2022-08-11T10:39:20.377Z,24.67
2022-08-11T10:42:09.615Z,24.66
2022-08-11T10:44:40.255Z,24.68
2022-08-11T10:47:26.544Z,24.69
2022-08-11T10:50:12.790Z,24.69
2022-08-11T10:52:58.671Z,24.67
2022-08-11T10:55:44.760Z,24.71
2022-08-11T10:58:29.895Z,24.74
2022-08-11T11:00:57.106Z,24.74
2022-08-11T11:03:28.301Z,24.74
2022-08-11T11:06:28.196Z,24.75
2022-08-11T11:09:00.039Z,24.77
2022-08-11T11:11:49.201Z,24.80
2022-08-11T11:14:36.453Z,24.80
2022-08-11T11:17:14.115Z,24.71
2022-08-11T11:19:41.473Z,24.78
2022-08-11T11:22:29.301Z,24.87
2022-08-11T11:24:57.710Z,24.84
2022-08-11T11:27:34.336Z,24.82
2022-08-11T11:30:06.057Z,24.75
2022-08-11T11:32:35.565Z,24.93
2022-08-11T11:35:04.971Z,24.96
2022-08-11T11:37:36.831Z,24.96
2022-08-11T11:40:10.352Z,24.92
2022-08-11T11:42:37.940Z,24.96
2022-08-11T11:45:05.710Z,24.93
2022-08-11T11:47:32.749Z,24.95
2022-08-11T11:49:59.656Z,24.90
2022-08-11T11:52:26.599Z,24.88
2022-08-11T11:54:55.373Z,24.84
2022-08-11T11:57:41.131Z,24.97
2022-08-11T12:00:33.150Z,24.98
2022-08-11T12:03:01.792Z,25.05
2022-08-11T12:05:28.810Z,25.06
2022-08-11T12:08:15.066Z,25.00
2022-08-11T12:10:45.924Z,25.08
2022-08-11T12:13:31.379Z,25.15
2022-08-11T12:16:31.050Z,25.17
2022-08-11T12:18:50.632Z,25.12
2022-08-11T12:21:19.749Z,25.00
2022-08-11T12:24:05.849Z,25.12
2022-08-11T12:27:16.625Z,25.14
2022-08-11T12:29:41.370Z,25.17
2022-08-11T12:32:10.574Z,25.14
2022-08-11T12:34:37.036Z,25.11
2022-08-11T12:37:06.797Z,25.14
2022-08-11T12:40:16.078Z,25.10
2022-08-11T12:43:04.067Z,25.14
2022-08-11T12:45:47.807Z,25.12
2022-08-11T12:48:57.401Z,25.16
2022-08-11T12:52:01.487Z,25.08
2022-08-11T12:54:35.010Z,25.19
2022-08-11T12:57:36.204Z,25.30
2022-08-11T13:00:23.491Z,25.28
2022-08-11T13:03:08.877Z,25.30
2022-08-11T13:05:38.900Z,25.27
2022-08-11T13:08:11.337Z,25.18
2022-08-11T13:10:56.792Z,25.17
2022-08-11T13:13:54.100Z,25.15
2022-08-11T13:16:10.945Z,25.11
2022-08-11T13:18:42.302Z,25.13
2022-08-11T13:21:11.921Z,25.15
2022-08-11T13:23:59.719Z,25.03
2022-08-11T13:26:46.570Z,25.27
2022-08-11T13:29:23.377Z,25.36
2022-08-11T13:31:50.610Z,25.55
2022-08-11T13:34:17.780Z,25.56
2022-08-11T13:36:45.295Z,25.45
2022-08-11T13:39:12.455Z,25.56
2022-08-11T13:41:41.877Z,25.54
2022-08-11T13:44:09.434Z,25.52
2022-08-11T13:46:36.531Z,25.58
2022-08-11T13:49:03.371Z,25.59
2022-08-11T13:51:34.707Z,25.59
2022-08-11T13:54:06.910Z,25.52
2022-08-11T13:56:34.957Z,25.60
2022-08-11T13:59:02.466Z,25.60
2022-08-11T14:02:20.055Z,25.67
2022-08-11T14:04:32.438Z,25.69
2022-08-11T14:07:00.755Z,25.67
2022-08-11T14:09:30.172Z,25.68
2022-08-11T14:12:30.491Z,25.64
2022-08-11T14:15:07.595Z,25.59
2022-08-11T14:17:48.413Z,25.58
2022-08-11T14:20:39.083Z,25.58
2022-08-11T14:23:03.891Z,25.57
2022-08-11T14:26:00.391Z,25.37
2022-08-11T14:28:32.463Z,25.67
2022-08-11T14:31:03.285Z,25.84
2022-08-11T14:33:58.338Z,25.93
2022-08-11T14:36:19.650Z,25.84
2022-08-11T14:38:46.127Z,25.91
2022-08-11T14:41:30.952Z,25.87
2022-08-11T14:44:16.516Z,25.86
2022-08-11T14:47:02.168Z,25.96
2022-08-11T14:49:29.238Z,25.97
2022-08-11T14:51:57.679Z,25.95
2022-08-11T14:54:47.720Z,25.81
2022-08-11T14:57:14.189Z,25.91
2022-08-11T14:59:40.960Z,25.81
2022-08-11T15:02:25.718Z,25.78
2022-08-11T15:04:52.994Z,26.03
2022-08-11T15:07:29.787Z,26.15
2022-08-11T15:10:12.324Z,26.11
2022-08-11T15:12:41.985Z,26.04
2022-08-11T15:15:27.773Z,25.97
2022-08-11T15:17:55.145Z,25.94
2022-08-11T15:20:40.216Z,25.84
2022-08-11T15:23:25.027Z,25.83
2022-08-11T15:25:55.220Z,25.76
2022-08-11T15:28:41.661Z,25.76
2022-08-11T15:31:26.981Z,25.69
2022-08-11T15:34:14.468Z,25.69
2022-08-11T15:37:05.656Z,25.68
2022-08-11T15:39:35.665Z,25.59
2022-08-11T15:42:30.968Z,25.57
2022-08-11T15:45:18.565Z,25.66
2022-08-11T15:47:48.467Z,25.63
2022-08-11T15:50:18.744Z,25.80
2022-08-11T15:52:52.508Z,25.92
2022-08-11T15:55:19.395Z,25.93
2022-08-11T15:58:06.142Z,25.89
2022-08-11T16:00:58.764Z,25.88
2022-08-11T16:04:05.947Z,25.73
2022-08-11T16:06:35.243Z,25.76
2022-08-11T16:09:03.912Z,25.73
2022-08-11T16:11:34.783Z,25.69
2022-08-11T16:14:23.146Z,25.64
2022-08-11T16:16:50.076Z,25.63
2022-08-11T16:19:18.428Z,25.62
2022-08-11T16:21:45.415Z,25.58
2022-08-11T16:27:05.816Z,25.55
2022-08-11T16:27:08.818Z,25.47
2022-08-11T16:29:38.150Z,25.53
2022-08-11T16:32:16.805Z,25.33
2022-08-11T16:35:13.693Z,25.51
2022-08-11T16:37:58.838Z,25.55
2022-08-11T16:40:25.420Z,25.47
2022-08-11T16:43:11.812Z,25.35
2022-08-11T16:45:58.237Z,25.46
2022-08-11T16:48:35.894Z,25.67
2022-08-11T16:51:07.845Z,25.65
2022-08-11T16:54:03.498Z,25.81
2022-08-11T16:56:23.242Z,25.84
2022-08-11T16:59:14.781Z,25.78
2022-08-11T17:01:47.333Z,25.63
2022-08-11T17:04:39.680Z,25.76
2022-08-11T17:07:41.622Z,25.73
2022-08-11T17:10:39.330Z,25.70
2022-08-11T17:13:20.406Z,25.56
2022-08-11T17:16:09.059Z,25.59
2022-08-11T17:18:45.644Z,25.53
2022-08-11T17:21:14.858Z,25.40
2022-08-11T17:23:49.993Z,25.43
2022-08-11T17:26:17.945Z,25.42
2022-08-11T17:28:45.186Z,25.41
2022-08-11T17:31:32.262Z,25.37
2022-08-11T17:34:18.049Z,25.18
2022-08-11T17:36:45.678Z,25.20
2022-08-11T17:39:13.146Z,25.13
2022-08-11T17:41:58.952Z,25.14
2022-08-11T17:44:44.725Z,25.05
2022-08-11T17:47:31.437Z,25.00
2022-08-11T17:50:10.615Z,24.93
2022-08-11T17:53:03.688Z,24.89
2022-08-11T17:55:51.735Z,24.83
2022-08-11T17:58:39.369Z,24.78
2022-08-11T18:01:09.317Z,24.75
2022-08-11T18:03:39.595Z,24.71
2022-08-11T18:06:07.223Z,24.67
2022-08-11T18:08:59.826Z,24.64
2022-08-11T18:12:10.858Z,24.44
2022-08-11T18:14:51.823Z,24.52
2022-08-11T18:17:37.118Z,24.46
2022-08-11T18:20:22.511Z,24.35
2022-08-11T18:23:08.462Z,24.39
2022-08-11T18:25:57.248Z,24.30
2022-08-11T18:28:48.242Z,24.24
2022-08-11T18:31:34.161Z,24.15
2022-08-11T18:34:22.871Z,24.04
2022-08-11T18:37:19.724Z,23.98
2022-08-11T18:40:12.309Z,23.91
2022-08-11T18:42:59.055Z,23.88
2022-08-11T18:45:45.618Z,23.76
2022-08-11T18:48:34.150Z,23.70
2022-08-11T18:51:30.362Z,23.66
2022-08-11T18:54:22.868Z,23.59
2022-08-11T18:57:08.152Z,23.50
2022-08-11T18:59:55.515Z,23.44
2022-08-11T19:02:49.546Z,23.36
2022-08-11T19:06:32.010Z,23.24
2022-08-11T19:08:42.079Z,22.97
2022-08-11T19:11:28.992Z,23.15
2022-08-11T19:14:15.238Z,23.21
2022-08-11T19:17:01.466Z,23.12
2022-08-11T19:19:47.899Z,23.09
2022-08-11T19:22:34.408Z,23.02
2022-08-11T19:25:23.378Z,23.15
2022-08-11T19:28:11.499Z,23.21
2022-08-11T19:30:56.940Z,23.08
2022-08-11T19:33:51.226Z,23.09
2022-08-11T19:36:47.372Z,23.11
2022-08-11T19:39:32.868Z,22.73
2022-08-11T19:42:18.553Z,22.76
2022-08-11T19:45:03.876Z,22.89
2022-08-11T19:47:49.694Z,22.83
2022-08-11T19:50:35.277Z,22.86
2022-08-11T19:53:23.465Z,22.74
2022-08-11T19:56:11.046Z,22.83
2022-08-11T19:58:56.935Z,22.83
2022-08-11T20:02:12.821Z,22.71
2022-08-11T20:04:47.977Z,22.59
2022-08-11T20:07:36.708Z,22.57
2022-08-11T20:10:23.247Z,22.36
2022-08-11T20:13:09.589Z,22.37
2022-08-11T20:15:56.016Z,22.43
2022-08-11T20:18:42.661Z,22.37
2022-08-11T20:21:31.429Z,22.20
2022-08-11T20:24:19.748Z,22.29
2022-08-11T20:27:05.113Z,22.19
2022-08-11T20:29:51.381Z,22.19
2022-08-11T20:32:36.470Z,21.97
2022-08-11T20:35:23.791Z,22.04
2022-08-11T20:38:13.493Z,21.92
2022-08-11T20:40:59.013Z,21.85
2022-08-11T20:44:08.096Z,21.77
2022-08-11T20:46:50.426Z,21.65
2022-08-11T20:49:45.295Z,21.65
2022-08-11T20:52:37.858Z,21.56
2022-08-11T20:55:25.739Z,21.63
2022-08-11T20:58:48.032Z,21.64
2022-08-11T21:01:38.377Z,21.48
2022-08-11T21:04:24.205Z,21.55
2022-08-11T21:07:10.352Z,21.49
2022-08-11T21:10:10.270Z,21.34
2022-08-11T21:13:25.874Z,21.30
2022-08-11T21:16:08.344Z,21.26
2022-08-11T21:19:11.011Z,21.20
2022-08-11T21:21:56.214Z,21.11
2022-08-11T21:24:46.882Z,21.08
2022-08-11T21:27:38.093Z,20.83
2022-08-11T21:30:23.367Z,20.89
2022-08-11T21:33:09.333Z,20.84
2022-08-11T21:35:54.561Z,20.78
2022-08-11T21:38:39.847Z,20.71
2022-08-11T21:41:25.501Z,20.59
2022-08-11T21:44:11.077Z,20.57
2022-08-11T21:46:56.873Z,20.50
2022-08-11T21:49:42.224Z,20.46
2022-08-11T21:52:28.238Z,20.42
2022-08-11T21:55:13.622Z,20.37
2022-08-11T21:57:59.296Z,20.27
2022-08-11T22:00:44.833Z,20.20
2022-08-11T22:03:29.920Z,20.14
2022-08-11T22:06:21.881Z,20.12
2022-08-11T22:09:07.039Z,20.12
2022-08-11T22:12:29.695Z,20.07
2022-08-11T22:14:57.591Z,19.99
2022-08-11T22:17:42.618Z,19.89
2022-08-11T22:20:30.220Z,19.75
2022-08-11T22:23:16.726Z,19.73
2022-08-11T22:26:07.116Z,19.60
2022-08-11T22:28:56.250Z,19.49
2022-08-11T22:31:41.721Z,19.36
2022-08-11T22:34:26.856Z,19.32
2022-08-11T22:37:26.749Z,19.24
2022-08-11T22:40:12.776Z,19.12
2022-08-11T22:42:57.880Z,19.03
2022-08-11T22:45:42.793Z,19.10
2022-08-11T22:48:28.973Z,19.13
2022-08-11T22:51:14.366Z,18.96
2022-08-11T22:53:59.717Z,18.97
2022-08-11T22:56:48.642Z,18.98
2022-08-11T22:59:34.596Z,18.93
2022-08-11T23:02:20.370Z,18.79
2022-08-11T23:05:06.666Z,18.70
2022-08-11T23:07:52.626Z,18.67
2022-08-11T23:10:38.770Z,18.67
2022-08-11T23:13:25.967Z,18.69
2022-08-11T23:16:11.369Z,18.77
2022-08-11T23:18:57.123Z,18.63
2022-08-11T23:21:42.838Z,18.67
2022-08-11T23:24:28.585Z,18.58
2022-08-11T23:27:14.392Z,18.55
2022-08-11T23:30:00.330Z,18.37
2022-08-11T23:32:45.705Z,18.18
2022-08-11T23:35:40.007Z,18.16
2022-08-11T23:38:36.638Z,18.20
2022-08-11T23:41:21.866Z,18.31
2022-08-11T23:44:07.247Z,18.27
2022-08-11T23:46:52.523Z,18.24
2022-08-11T23:49:37.789Z,18.26
2022-08-11T23:52:23.775Z,18.21
2022-08-11T23:55:08.977Z,18.32
2022-08-11T23:57:54.304Z,18.29
